createdAt,value
2018-06-10T01:55:52.417Z,4.83
2018-06-10T01:58:23.384Z,5.17
2018-06-10T02:00:54.605Z,5.80
2018-06-10T02:03:26.207Z,4.87
2018-06-10T02:05:57.045Z,5.57
2018-06-10T02:08:27.951Z,5.40
2018-06-10T02:10:58.757Z,5.30
2018-06-10T02:13:29.558Z,5.17
2018-06-10T02:16:00.497Z,5.37
2018-06-10T02:18:31.394Z,5.20
2018-06-10T02:21:02.240Z,5.30
2018-06-10T02:23:33.099Z,5.13
2018-06-10T02:26:03.999Z,5.93
2018-06-10T02:28:34.857Z,5.50
2018-06-10T02:31:05.793Z,5.37
2018-06-10T02:33:36.645Z,5.53
2018-06-10T02:36:07.549Z,6.03
2018-06-10T02:38:38.353Z,5.60
2018-06-10T02:41:09.217Z,5.27
2018-06-10T02:43:40.124Z,5.23
2018-06-10T02:46:10.942Z,5.50
2018-06-10T02:48:41.802Z,5.63
2018-06-10T02:51:12.713Z,5.50
2018-06-10T02:53:43.632Z,5.70
2018-06-10T02:56:14.542Z,5.70
2018-06-10T02:58:45.368Z,5.63
2018-06-10T03:01:16.389Z,5.33
2018-06-10T03:03:47.290Z,5.07
2018-06-10T03:06:18.142Z,5.57
2018-06-10T03:08:48.972Z,5.63
2018-06-10T03:11:19.800Z,5.47
2018-06-10T03:13:50.630Z,5.37
2018-06-10T03:16:21.558Z,6.20
2018-06-10T03:18:52.551Z,5.83
2018-06-10T03:21:23.482Z,5.80
2018-06-10T03:23:54.272Z,5.70
2018-06-10T03:26:25.127Z,6.27
2018-06-10T03:28:55.964Z,6.10
2018-06-10T03:31:26.913Z,5.87
2018-06-10T03:33:57.761Z,6.10
2018-06-10T03:36:28.569Z,6.20
2018-06-10T03:38:59.524Z,5.90
2018-06-10T03:41:30.433Z,5.83
2018-06-10T03:44:01.416Z,6.47
2018-06-10T03:46:32.307Z,5.83
2018-06-10T03:49:03.468Z,6.30
2018-06-10T03:51:34.319Z,6.10
2018-06-10T03:54:05.258Z,6.20
2018-06-10T03:56:36.180Z,6.17
2018-06-10T03:59:07.091Z,6.90
2018-06-10T04:01:38.074Z,6.67
2018-06-10T04:04:09.109Z,5.83
2018-06-10T04:06:39.968Z,6.53
2018-06-10T04:09:10.963Z,6.73
2018-06-10T04:11:41.689Z,6.30
2018-06-10T04:14:12.570Z,5.93
2018-06-10T04:16:43.446Z,6.17
2018-06-10T04:19:14.172Z,6.90
2018-06-10T04:21:45.017Z,6.53
2018-06-10T04:24:16.729Z,6.47
2018-06-10T04:26:49.983Z,6.00
2018-06-10T04:29:20.769Z,7.13
2018-06-10T04:31:51.498Z,6.33
2018-06-10T04:34:22.267Z,6.57
2018-06-10T04:36:52.991Z,7.00
2018-06-10T04:39:24.138Z,6.30
2018-06-10T04:41:55.094Z,6.70
2018-06-10T04:44:32.284Z,6.83
2018-06-10T04:47:07.387Z,6.43
2018-06-10T04:49:39.487Z,6.67
2018-06-10T04:52:10.439Z,7.03
2018-06-10T04:54:43.643Z,6.53
2018-06-10T04:57:25.003Z,7.13
2018-06-10T05:03:12.632Z,6.70
2018-06-10T05:05:43.044Z,7.10
2018-06-10T05:08:13.863Z,7.03
2018-06-10T05:11:25.991Z,6.57
2018-06-10T05:14:16.676Z,6.90
2018-06-10T05:19:53.034Z,7.23
2018-06-10T05:22:24.288Z,7.20
2018-06-10T05:24:57.742Z,6.90
2018-06-10T05:27:28.552Z,7.10
2018-06-10T05:29:59.382Z,6.93
2018-06-10T05:32:29.769Z,8.00
2018-06-10T05:35:00.315Z,6.90
2018-06-10T05:37:30.919Z,7.03
2018-06-10T05:40:01.752Z,7.07
2018-06-10T05:52:00.424Z,6.93
2018-06-10T05:54:31.412Z,6.07
2018-06-10T05:57:12.611Z,6.50
2018-06-10T05:59:50.046Z,6.03
2018-06-10T06:02:24.452Z,6.43
2018-06-10T06:04:55.574Z,6.90
2018-06-10T06:07:26.491Z,6.90
2018-06-10T06:10:00.141Z,6.50
2018-06-10T06:12:31.182Z,6.50
2018-06-10T06:15:04.324Z,6.70
2018-06-10T06:17:35.182Z,6.53
2018-06-10T06:20:06.991Z,6.50
2018-06-10T06:22:37.339Z,6.13
2018-06-10T06:25:08.719Z,6.30
2018-06-10T06:27:39.485Z,6.93
2018-06-10T06:30:12.517Z,6.90
2018-06-10T06:32:43.475Z,6.80
2018-06-10T06:35:14.321Z,6.10
2018-06-10T06:37:45.134Z,6.73
2018-06-10T06:40:15.868Z,6.53
2018-06-10T06:42:46.679Z,6.10
2018-06-10T06:45:17.468Z,6.17
2018-06-10T06:47:48.245Z,6.87
2018-06-10T06:50:19.153Z,6.27
2018-06-10T06:52:50.179Z,6.87
2018-06-10T06:55:20.985Z,6.17
2018-06-10T06:57:51.866Z,6.10
2018-06-10T07:00:22.195Z,5.77
2018-06-10T07:02:52.425Z,5.77
2018-06-10T07:05:23.431Z,5.90
2018-06-10T07:07:57.679Z,6.13
2018-06-10T07:10:28.131Z,5.97
2018-06-10T07:12:58.893Z,6.17
2018-06-10T07:15:29.868Z,6.10
2018-06-10T07:18:00.773Z,6.60
2018-06-10T07:20:31.822Z,5.87
2018-06-10T07:23:02.679Z,6.20
2018-06-10T07:25:33.560Z,6.37
2018-06-10T07:28:05.263Z,6.17
2018-06-10T07:30:37.379Z,6.83
2018-06-10T07:33:09.361Z,6.33
2018-06-10T07:35:40.271Z,5.97
2018-06-10T07:38:11.758Z,6.47
2018-06-10T07:40:42.442Z,6.10
2018-06-10T07:43:12.820Z,6.10
2018-06-10T07:45:43.496Z,6.63
2018-06-10T07:48:13.903Z,6.07
2018-06-10T07:50:45.080Z,6.00
2018-06-10T07:53:15.817Z,6.67
2018-06-10T07:55:46.755Z,6.73
2018-06-10T07:58:18.305Z,6.37
2018-06-10T08:00:49.428Z,6.30
2018-06-10T08:03:19.788Z,6.43
2018-06-10T08:05:50.586Z,5.93
2018-06-10T08:08:24.396Z,6.87
2018-06-10T08:10:55.103Z,6.97
2018-06-10T08:13:25.932Z,6.50
2018-06-10T08:15:56.739Z,6.23
2018-06-10T08:18:27.585Z,6.70
2018-06-10T08:20:58.556Z,6.50
2018-06-10T08:23:30.430Z,6.83
2018-06-10T08:26:01.242Z,6.60
2018-06-10T08:28:32.098Z,6.13
2018-06-10T08:31:02.891Z,6.50
2018-06-10T08:33:33.852Z,6.67
2018-06-10T08:36:04.701Z,6.40
2018-06-10T08:38:35.401Z,6.53
2018-06-10T08:41:06.154Z,5.77
2018-06-10T08:43:38.044Z,6.57
2018-06-10T08:46:12.772Z,6.03
2018-06-10T08:48:43.393Z,6.47
2018-06-10T08:51:14.101Z,6.17
2018-06-10T08:53:44.939Z,6.30
2018-06-10T08:56:15.857Z,6.10
2018-06-10T08:58:46.893Z,6.00
2018-06-10T09:01:18.661Z,6.40
2018-06-10T09:03:49.510Z,5.90
2018-06-10T09:06:20.411Z,6.00
2018-06-10T09:08:51.139Z,6.13
2018-06-10T09:11:22.102Z,5.97
2018-06-10T09:13:53.344Z,5.93
2018-06-10T09:16:24.444Z,5.90
2018-06-10T09:18:55.291Z,6.43
2018-06-10T09:21:26.155Z,5.70
2018-06-10T09:23:56.963Z,6.07
2018-06-10T09:26:27.651Z,6.13
2018-06-10T09:28:58.275Z,6.20
2018-06-10T09:31:29.144Z,6.40
2018-06-10T09:33:59.884Z,5.90
2018-06-10T09:36:30.611Z,6.13
2018-06-10T09:39:01.352Z,7.50
2018-06-10T09:41:31.603Z,7.10
2018-06-10T09:44:02.216Z,6.77
2018-06-10T09:46:32.903Z,6.60
2018-06-10T09:49:03.621Z,6.43
2018-06-10T09:51:34.317Z,6.53
2018-06-10T09:54:05.198Z,6.37
2018-06-10T09:56:35.907Z,6.77
2018-06-10T09:59:06.611Z,6.93
2018-06-10T10:01:37.454Z,6.47
2018-06-10T10:04:08.249Z,7.10
2018-06-10T10:06:39.144Z,6.70
2018-06-10T10:09:10.171Z,6.50
2018-06-10T10:11:41.076Z,6.43
2018-06-10T10:14:12.160Z,7.37
2018-06-10T10:16:43.029Z,6.63
2018-06-10T10:19:13.885Z,7.50
2018-06-10T10:21:44.526Z,6.77
2018-06-10T10:24:15.182Z,7.37
2018-06-10T10:26:46.018Z,7.27
2018-06-10T10:29:16.980Z,7.03
2018-06-10T10:31:47.714Z,6.80
2018-06-10T10:34:18.407Z,7.00
2018-06-10T10:36:49.153Z,6.83
2018-06-10T10:39:19.876Z,7.07
2018-06-10T10:41:50.068Z,6.83
2018-06-10T10:44:20.611Z,6.80
2018-06-10T10:46:51.405Z,7.17
2018-06-10T10:49:22.085Z,7.00
2018-06-10T10:51:52.759Z,7.30
2018-06-10T10:54:23.412Z,7.07
2018-06-10T10:56:54.067Z,7.40
2018-06-10T10:59:24.708Z,7.47
2018-06-10T11:01:54.965Z,7.20
2018-06-10T11:04:25.636Z,7.03
2018-06-10T11:06:56.833Z,7.20
2018-06-10T11:09:27.600Z,7.67
2018-06-10T11:12:04.290Z,7.57
2018-06-10T11:14:34.961Z,7.30
2018-06-10T11:17:05.686Z,7.33
2018-06-10T11:19:36.070Z,6.93
2018-06-10T11:22:06.793Z,7.87
2018-06-10T11:24:37.517Z,7.00
2018-06-10T11:27:08.199Z,7.47
2018-06-10T11:29:38.865Z,7.60
2018-06-10T11:32:09.565Z,7.10
2018-06-10T11:34:40.241Z,7.20
2018-06-10T11:37:10.897Z,8.10
2018-06-10T11:39:41.637Z,7.90
2018-06-10T11:42:12.364Z,7.97
2018-06-10T11:44:43.159Z,7.00
2018-06-10T11:47:13.828Z,6.87
2018-06-10T11:49:44.598Z,7.60
2018-06-10T11:52:15.449Z,7.60
2018-06-10T11:54:46.051Z,8.07
2018-06-10T11:57:16.721Z,7.20
2018-06-10T11:59:47.488Z,7.40
2018-06-10T12:02:18.171Z,7.57
2018-06-10T12:04:48.474Z,7.10
2018-06-10T12:07:19.239Z,7.67
2018-06-10T12:09:49.501Z,7.77
2018-06-10T12:12:20.227Z,7.50
2018-06-10T12:14:51.088Z,7.20
2018-06-10T12:17:21.769Z,7.53
2018-06-10T12:19:52.757Z,7.67
2018-06-10T12:22:23.521Z,6.73
2018-06-10T12:24:54.027Z,7.23
2018-06-10T12:27:24.695Z,7.70
2018-06-10T12:29:55.533Z,7.13
2018-06-10T12:32:26.216Z,7.60
2018-06-10T12:34:57.104Z,7.33
2018-06-10T12:37:27.940Z,7.73
2018-06-10T12:40:02.313Z,7.10
2018-06-10T12:42:33.626Z,7.23
2018-06-10T12:45:14.024Z,7.20
2018-06-10T12:47:44.750Z,8.27
2018-06-10T12:50:15.657Z,7.20
2018-06-10T12:52:46.521Z,7.77
2018-06-10T12:55:17.501Z,7.73
2018-06-10T12:57:48.264Z,7.20
2018-06-10T13:00:19.001Z,7.10
2018-06-10T13:02:49.759Z,6.83
2018-06-10T13:05:20.732Z,7.73
2018-06-10T13:07:51.620Z,7.00
2018-06-10T13:10:22.540Z,7.37
2018-06-10T13:12:53.445Z,8.13
2018-06-10T13:15:24.149Z,7.17
2018-06-10T13:17:54.953Z,7.00
2018-06-10T13:20:25.644Z,7.33
2018-06-10T13:22:56.467Z,7.13
2018-06-10T13:25:27.565Z,6.93
2018-06-10T13:27:58.338Z,7.17
2018-06-10T13:30:29.047Z,9.37
2018-06-10T13:32:59.893Z,6.37
2018-06-10T13:35:30.656Z,5.37
2018-06-10T13:38:01.321Z,5.50
2018-06-10T13:40:32.043Z,6.03
2018-06-10T13:43:02.739Z,5.40
2018-06-10T13:45:33.567Z,6.57
2018-06-10T13:48:04.360Z,6.90
2018-06-10T13:50:35.165Z,7.03
2018-06-10T13:53:05.536Z,6.07
2018-06-10T13:55:36.297Z,7.37
2018-06-10T13:58:07.094Z,6.40
2018-06-10T14:00:37.852Z,6.93
2018-06-10T14:03:08.792Z,7.50
2018-06-10T14:05:40.146Z,7.73
2018-06-10T14:08:11.034Z,8.30
2018-06-10T14:10:41.799Z,8.63
2018-06-10T14:13:12.579Z,7.37
2018-06-10T14:15:43.373Z,7.37
2018-06-10T14:18:14.466Z,7.03
2018-06-10T14:20:45.191Z,7.43
2018-06-10T14:23:22.230Z,7.33
2018-06-10T14:25:53.330Z,6.90
2018-06-10T14:28:24.180Z,6.93
2018-06-10T14:30:54.970Z,6.67
2018-06-10T14:33:25.711Z,6.63
2018-06-10T14:35:56.509Z,7.10
2018-06-10T14:38:27.266Z,6.93
2018-06-10T14:40:58.000Z,6.90
2018-06-10T14:43:28.707Z,6.97
2018-06-10T14:45:59.358Z,6.83
2018-06-10T14:48:29.969Z,6.40
2018-06-10T14:51:01.295Z,7.10
2018-06-10T14:53:31.896Z,6.77
2018-06-10T14:56:02.505Z,8.00
2018-06-10T14:58:33.248Z,6.73
2018-06-10T15:01:04.973Z,7.27
2018-06-10T15:03:35.941Z,7.33
2018-06-10T15:06:09.155Z,7.33
2018-06-10T15:08:43.879Z,7.17
